Time;durP1;ratioP1;P1;durP2;ratioP2;P2;SDS_P1;SDS_P2;PMS_P1;PMS_P2;Temp;Humidity;BMP_temperature;BMP_pressure;BME280_temperature;BME280_humidity;BME280_pressure;Samples;Min_cycle;Max_cycle;Signal;HPM_P1;HPM_P2
2021/07/04 00:02:09;;;;;;;11.45;6.90;;;;;;;15.56;58.99;98184.19;5115278;28;20051;-82
2021/07/04 00:04:34;;;;;;;10.55;6.95;;;;;;;15.53;58.90;98178.53;5114920;28;20051;-84
2021/07/04 00:07:00;;;;;;;9.73;6.47;;;;;;;15.47;59.15;98187.03;5111591;28;20499;-79
2021/07/04 00:09:26;;;;;;;11.55;7.00;;;;;;;15.45;59.41;98191.28;5102676;28;20090;-84
2021/07/04 00:11:52;;;;;;;12.13;7.03;;;;;;;15.42;59.19;98187.22;5104788;28;20016;-86
2021/07/04 00:14:17;;;;;;;11.43;7.05;;;;;;;15.41;59.51;98193.88;5103266;28;20024;-85
2021/07/04 00:16:43;;;;;;;11.05;6.90;;;;;;;15.41;59.62;98193.88;5102522;28;20613;-86
2021/07/04 00:19:10;;;;;;;9.50;6.50;;;;;;;15.41;59.52;98190.31;5104096;28;20024;-85
2021/07/04 00:21:35;;;;;;;10.38;6.88;;;;;;;15.38;59.82;98186.25;5105511;28;20039;-85
2021/07/04 00:24:00;;;;;;;11.45;7.55;;;;;;;15.34;59.45;98188.06;5112876;28;20499;-77
2021/07/04 00:26:26;;;;;;;11.93;7.30;;;;;;;15.31;59.70;98184.03;5110814;28;20118;-77
2021/07/04 00:28:51;;;;;;;12.50;7.18;;;;;;;15.30;59.89;98187.13;5097242;28;20028;-78
2021/07/04 00:31:17;;;;;;;11.32;7.25;;;;;;;15.28;60.04;98190.22;5093723;28;20464;-78
2021/07/04 00:33:42;;;;;;;15.00;7.90;;;;;;;15.26;60.11;98180.69;5096320;28;20823;-78
2021/07/04 00:36:08;;;;;;;12.23;7.60;;;;;;;15.26;60.20;98178.72;5099734;28;20514;-80
2021/07/04 00:38:35;;;;;;;13.35;7.85;;;;;;;15.26;60.22;98172.38;5102168;28;20550;-79
2021/07/04 00:41:00;;;;;;;11.07;7.85;;;;;;;15.23;60.43;98178.56;5101226;28;20492;-79
2021/07/04 00:43:26;;;;;;;13.10;8.82;;;;;;;15.20;60.29;98177.28;5104488;28;20016;-79
2021/07/04 00:45:51;;;;;;;13.45;8.25;;;;;;;15.23;60.45;98181.34;5103750;28;20028;-79
2021/07/04 00:48:16;;;;;;;13.32;8.27;;;;;;;15.23;60.51;98171.09;5103366;28;20600;-80
2021/07/04 00:50:43;;;;;;;14.90;8.57;;;;;;;15.24;60.54;98181.00;5087331;28;20023;-80
2021/07/04 00:53:08;;;;;;;14.60;9.10;;;;;;;15.25;60.69;98179.06;5082067;28;20709;-78
2021/07/04 00:55:34;;;;;;;13.55;8.35;;;;;;;15.27;60.70;98169.28;5083422;28;20114;-79
2021/07/04 00:58:00;;;;;;;14.73;9.38;;;;;;;15.29;61.05;98175.28;5098068;28;20027;-78
2021/07/04 01:00:30;;;;;;;17.67;9.48;;;;;;;15.32;61.01;98174.59;5100558;28;20024;-78
2021/07/04 01:02:57;;;;;;;14.43;9.27;;;;;;;15.33;60.80;98173.47;5101779;28;20380;-78
2021/07/04 01:05:25;;;;;;;14.82;9.40;;;;;;;15.31;61.15;98175.75;5106127;28;20048;-78
2021/07/04 01:07:51;;;;;;;16.43;10.40;;;;;;;15.31;61.06;98169.41;5100863;28;20485;-80
2021/07/04 01:10:20;;;;;;;16.88;9.93;;;;;;;15.29;61.15;98164.22;5081527;28;20110;-78
2021/07/04 01:12:48;;;;;;;18.77;10.57;;;;;;;15.27;61.09;98165.72;5102620;28;20347;-78
2021/07/04 01:15:17;;;;;;;15.80;10.02;;;;;;;15.22;60.95;98161.19;5103226;28;20119;-78
2021/07/04 01:17:43;;;;;;;15.35;10.30;;;;;;;15.21;61.24;98158.75;5102974;28;20495;-78
2021/07/04 01:20:11;;;;;;;14.57;10.18;;;;;;;15.14;61.39;98160.09;5103513;28;20024;-78
2021/07/04 01:22:40;;;;;;;17.95;10.43;;;;;;;15.09;61.28;98159.47;5102963;28;20030;-79
2021/07/04 01:25:08;;;;;;;16.95;10.43;;;;;;;15.05;61.66;98162.09;5102336;28;20020;-78
2021/07/04 01:27:34;;;;;;;17.17;11.05;;;;;;;15.01;61.62;98166.66;5103141;28;20020;-78
2021/07/04 01:29:59;;;;;;;17.35;10.82;;;;;;;14.98;61.46;98154.34;5103370;28;20024;-78
2021/07/04 01:32:25;;;;;;;14.38;10.52;;;;;;;14.93;61.86;98160.03;5102871;28;20042;-78
2021/07/04 01:34:50;;;;;;;14.20;10.18;;;;;;;14.88;61.76;98160.22;5102615;28;20028;-78
2021/07/04 01:37:16;;;;;;;18.73;10.63;;;;;;;14.86;61.98;98162.50;5100757;28;20039;-78
2021/07/04 01:39:42;;;;;;;18.08;11.07;;;;;;;14.82;62.31;98156.03;5104021;28;20027;-78
2021/07/04 01:42:08;;;;;;;18.65;11.20;;;;;;;14.78;62.29;98155.91;5102114;28;20024;-78
2021/07/04 01:44:33;;;;;;;16.05;10.30;;;;;;;14.76;62.08;98149.91;5103443;28;20357;-78
2021/07/04 01:46:59;;;;;;;17.90;10.40;;;;;;;14.73;62.25;98154.13;5109140;28;20016;-80
2021/07/04 01:49:24;;;;;;;16.98;10.60;;;;;;;14.72;62.41;98163.53;5109188;28;20051;-80
2021/07/04 01:51:52;;;;;;;16.05;10.32;;;;;;;14.70;62.67;98165.81;5110858;28;20579;-79
2021/07/04 01:54:17;;;;;;;14.77;9.73;;;;;;;14.70;62.62;98160.28;5110661;28;20054;-79
2021/07/04 01:56:43;;;;;;;33.95;16.83;;;;;;;14.67;62.71;98160.94;5105518;28;20380;-78
2021/07/04 01:59:08;;;;;;;19.17;12.43;;;;;;;14.63;62.68;98162.75;5104678;28;20020;-79
2021/07/04 02:01:33;;;;;;;23.35;14.15;;;;;;;14.59;63.08;98162.59;5108173;28;20301;-80
2021/07/04 02:03:59;;;;;;;20.55;11.80;;;;;;;14.61;63.27;98169.72;5107345;28;20046;-81
2021/07/04 02:06:24;;;;;;;18.55;11.93;;;;;;;14.60;62.90;98163.41;5103364;28;20032;-80
2021/07/04 02:08:49;;;;;;;17.75;11.25;;;;;;;14.59;63.01;98170.06;5107714;28;20450;-77
2021/07/04 02:11:15;;;;;;;17.40;10.88;;;;;;;14.54;62.76;98161.97;5106271;28;20035;-79
2021/07/04 02:13:40;;;;;;;18.90;10.80;;;;;;;14.48;62.93;98169.59;5104578;28;20031;-79
2021/07/04 02:16:05;;;;;;;15.38;9.95;;;;;;;14.43;63.17;98170.59;5105324;28;20020;-78
2021/07/04 02:18:31;;;;;;;15.88;10.52;;;;;;;14.42;63.17;98171.72;5106162;28;20028;-78
2021/07/04 02:20:56;;;;;;;17.45;11.18;;;;;;;14.39;63.22;98175.16;5103042;28;20051;-78
2021/07/04 02:23:26;;;;;;;17.13;11.88;;;;;;;14.36;63.40;98170.28;5103233;28;20027;-78
2021/07/04 02:25:52;;;;;;;20.52;12.32;;;;;;;14.35;64.13;98179.69;5102135;28;20078;-78
2021/07/04 02:28:20;;;;;;;19.20;11.82;;;;;;;14.36;64.13;98173.03;5106389;28;20021;-78
2021/07/04 02:30:47;;;;;;;21.45;12.13;;;;;;;14.37;64.54;98184.91;5109475;28;20051;-77
2021/07/04 02:33:15;;;;;;;20.15;12.07;;;;;;;14.36;66.60;98186.03;5104772;28;20020;-78
2021/07/04 02:35:47;;;;;;;23.23;13.85;;;;;;;14.36;65.03;98188.81;5100104;28;20051;-78
2021/07/04 02:38:14;;;;;;;19.95;12.52;;;;;;;14.41;65.33;98192.19;5105072;28;20023;-78
2021/07/04 02:40:40;;;;;;;20.65;13.82;;;;;;;14.42;65.17;98193.00;5109409;28;20051;-77
2021/07/04 02:43:14;;;;;;;18.73;12.15;;;;;;;14.43;64.91;98186.34;5106672;28;20027;-78
2021/07/04 02:45:41;;;;;;;20.40;12.73;;;;;;;14.42;64.86;98191.03;5104992;28;20422;-77
2021/07/04 02:48:07;;;;;;;17.58;11.93;;;;;;;14.42;64.99;98195.78;5105657;28;20023;-78
2021/07/04 02:50:33;;;;;;;24.00;12.35;;;;;;;14.42;64.90;98193.00;5102819;28;20034;-78
2021/07/04 02:52:58;;;;;;;20.65;12.02;;;;;;;14.39;64.82;98191.69;5107999;28;20020;-78
2021/07/04 02:55:24;;;;;;;19.38;10.80;;;;;;;14.38;64.61;98189.28;5103564;28;20111;-77
2021/07/04 02:57:50;;;;;;;19.15;11.38;;;;;;;14.33;64.63;98192.22;5107359;28;20055;-78
2021/07/04 03:00:21;;;;;;;17.90;11.10;;;;;;;14.29;64.86;98186.53;5103402;28;20020;-78
2021/07/04 03:02:47;;;;;;;20.92;12.95;;;;;;;14.23;64.48;98191.41;5084824;28;20376;-79
2021/07/04 03:05:14;;;;;;;19.10;11.60;;;;;;;14.18;64.15;98197.09;5103521;28;20442;-79
2021/07/04 03:07:39;;;;;;;20.48;12.05;;;;;;;14.13;64.60;98197.25;5107209;28;20069;-79
2021/07/04 03:10:08;;;;;;;20.75;10.93;;;;;;;14.13;64.45;98200.00;5087233;28;20036;-79
2021/07/04 03:12:33;;;;;;;20.35;11.75;;;;;;;14.10;64.81;98201.50;5102360;28;20016;-79
2021/07/04 03:14:58;;;;;;;23.63;12.35;;;;;;;14.12;64.59;98201.97;5103628;28;20074;-79
2021/07/04 03:17:24;;;;;;;20.65;11.48;;;;;;;14.13;65.20;98202.78;5105766;28;20364;-79
2021/07/04 03:19:49;;;;;;;18.77;11.65;;;;;;;14.16;65.17;98207.63;5104758;28;20028;-80
2021/07/04 03:22:14;;;;;;;16.60;10.48;;;;;;;14.15;64.92;98206.03;5106549;28;20487;-79
2021/07/04 03:24:40;;;;;;;20.80;11.65;;;;;;;14.15;65.12;98222.56;5107497;28;20028;-79
2021/07/04 03:27:09;;;;;;;20.52;12.38;;;;;;;14.17;65.05;98220.28;5113654;28;20149;-79
2021/07/04 03:29:35;;;;;;;20.95;12.50;;;;;;;14.18;65.43;98210.88;5111328;28;20098;-79
2021/07/04 03:32:03;;;;;;;19.60;12.88;;;;;;;14.21;65.43;98217.72;5105218;28;20055;-78
2021/07/04 03:34:29;;;;;;;20.17;13.00;;;;;;;14.24;65.43;98220.63;5108262;28;20395;-78
2021/07/04 03:36:55;;;;;;;20.30;12.55;;;;;;;14.26;65.58;98212.81;5109103;28;20050;-78
2021/07/04 03:39:20;;;;;;;18.60;12.80;;;;;;;14.32;65.59;98215.41;5108757;28;20024;-78
2021/07/04 03:41:46;;;;;;;18.50;11.63;;;;;;;14.36;65.60;98225.47;5108265;28;20031;-78
2021/07/04 03:44:11;;;;;;;23.17;13.02;;;;;;;14.41;65.70;98224.50;5108730;28;20024;-78
2021/07/04 03:46:37;;;;;;;18.13;11.57;;;;;;;14.47;65.59;98219.59;5110250;28;20036;-78
2021/07/04 03:49:02;;;;;;;19.08;12.73;;;;;;;14.52;66.04;98211.16;5105388;28;20030;-78
2021/07/04 03:51:28;;;;;;;19.30;12.13;;;;;;;14.61;65.79;98213.88;5108043;28;20371;-77
2021/07/04 03:53:53;;;;;;;22.48;12.25;;;;;;;14.69;65.74;98219.41;5109116;28;20024;-77
2021/07/04 03:56:20;;;;;;;18.83;12.18;;;;;;;14.79;65.90;98218.25;5107985;28;20107;-77
2021/07/04 03:58:45;;;;;;;18.38;12.02;;;;;;;14.88;65.95;98215.44;5111809;28;20027;-78
2021/07/04 04:01:18;;;;;;;18.65;11.65;;;;;;;14.97;66.00;98212.66;5108880;28;20019;-78
2021/07/04 04:03:44;;;;;;;19.48;12.57;;;;;;;15.02;65.70;98212.47;5106939;28;20089;-78
2021/07/04 04:06:09;;;;;;;21.35;12.48;;;;;;;15.11;65.82;98223.47;5105771;28;20419;-78
2021/07/04 04:08:34;;;;;;;20.70;12.05;;;;;;;15.16;66.17;98224.09;5105737;28;20745;-79
2021/07/04 04:11:00;;;;;;;18.85;12.63;;;;;;;15.24;65.74;98225.19;5109628;28;20027;-78
2021/07/04 04:13:25;;;;;;;20.58;12.23;;;;;;;15.30;66.52;98225.81;5107902;28;20439;-78
2021/07/04 04:15:51;;;;;;;21.98;13.27;;;;;;;15.38;66.25;98229.69;5107331;28;20107;-78
2021/07/04 04:18:18;;;;;;;19.83;12.18;;;;;;;15.47;66.58;98225.72;5102976;28;20794;-78
2021/07/04 04:20:43;;;;;;;20.58;12.05;;;;;;;15.55;66.22;98220.47;5104791;28;20051;-78
2021/07/04 04:23:09;;;;;;;20.25;12.25;;;;;;;15.63;66.49;98216.84;5107980;28;20434;-78
2021/07/04 04:25:34;;;;;;;19.52;12.00;;;;;;;15.74;66.00;98212.50;5107339;28;20533;-79
2021/07/04 04:28:03;;;;;;;20.48;11.85;;;;;;;15.85;66.16;98214.88;5114010;28;20027;-76
2021/07/04 04:30:29;;;;;;;20.45;12.32;;;;;;;15.95;66.23;98208.97;5114270;28;20032;-75
2021/07/04 04:32:54;;;;;;;20.30;12.70;;;;;;;16.07;66.38;98211.81;5114699;28;20034;-76
2021/07/04 04:35:19;;;;;;;22.00;12.43;;;;;;;16.17;66.42;98213.34;5114366;28;20043;-76
2021/07/04 04:37:45;;;;;;;20.13;12.93;;;;;;;16.27;65.86;98216.84;5114223;28;20096;-76
2021/07/04 04:40:11;;;;;;;20.75;12.82;;;;;;;16.35;65.66;98213.16;5114542;28;20020;-75
2021/07/04 04:42:36;;;;;;;22.65;14.55;;;;;;;16.44;65.85;98202.81;5114717;28;20081;-74
2021/07/04 04:45:03;;;;;;;24.42;14.90;;;;;;;16.50;65.80;98198.69;5114396;28;20031;-75
2021/07/04 04:47:28;;;;;;;23.85;13.65;;;;;;;16.57;65.82;98197.31;5114096;28;20118;-75
2021/07/04 04:49:53;;;;;;;23.73;13.73;;;;;;;16.61;65.83;98196.28;5114494;28;20090;-75
2021/07/04 04:52:18;;;;;;;25.55;14.35;;;;;;;16.66;65.66;98201.59;5114128;28;20026;-76
2021/07/04 04:54:44;;;;;;;21.38;14.43;;;;;;;16.71;65.32;98197.78;5113709;28;20356;-76
2021/07/04 04:57:09;;;;;;;27.20;14.68;;;;;;;16.75;65.20;98204.25;5113388;28;20097;-76
2021/07/04 04:59:36;;;;;;;21.83;13.45;;;;;;;16.80;65.22;98192.16;5095733;28;20092;-75
2021/07/04 05:02:03;;;;;;;19.73;13.45;;;;;;;16.82;64.83;98209.25;5113683;28;20110;-74
2021/07/04 05:04:28;;;;;;;20.23;12.60;;;;;;;16.86;64.80;98199.09;5112743;28;20522;-75
2021/07/04 05:06:54;;;;;;;27.10;14.18;;;;;;;16.95;64.89;98204.53;5113513;28;20031;-75
2021/07/04 05:09:19;;;;;;;21.02;13.13;;;;;;;17.04;65.15;98209.97;5095180;28;20369;-76
2021/07/04 05:11:45;;;;;;;18.15;11.85;;;;;;;17.07;64.94;98214.84;5113468;28;20042;-75
2021/07/04 05:14:11;;;;;;;20.58;13.02;;;;;;;17.09;64.70;98210.59;5114027;28;20054;-76
2021/07/04 05:16:37;;;;;;;18.15;13.00;;;;;;;17.17;64.46;98210.78;5113561;28;20536;-75
2021/07/04 05:19:05;;;;;;;18.60;12.25;;;;;;;17.23;64.49;98201.09;5113858;28;20039;-75
2021/07/04 05:21:32;;;;;;;24.63;13.82;;;;;;;17.30;64.18;98206.88;5113358;28;20476;-75
2021/07/04 05:23:59;;;;;;;22.00;13.70;;;;;;;17.38;64.50;98208.72;5113694;28;20064;-75
2021/07/04 05:26:24;;;;;;;20.45;12.90;;;;;;;17.47;64.27;98214.13;5112876;28;20097;-75
2021/07/04 05:28:49;;;;;;;16.73;11.50;;;;;;;17.55;64.27;98212.38;5112891;28;20459;-75
2021/07/04 05:31:15;;;;;;;19.88;12.10;;;;;;;17.61;63.87;98210.97;5113082;28;20422;-75
2021/07/04 05:33:40;;;;;;;21.15;11.60;;;;;;;17.67;63.86;98206.03;5113533;28;20376;-75
2021/07/04 05:36:05;;;;;;;19.95;12.25;;;;;;;17.77;63.33;98213.03;5113430;28;20045;-75
2021/07/04 05:38:33;;;;;;;16.15;10.95;;;;;;;17.85;63.54;98212.91;5111686;28;20081;-76
2021/07/04 05:40:59;;;;;;;16.63;11.32;;;;;;;17.92;63.42;98209.53;5113382;28;20380;-75
2021/07/04 05:43:24;;;;;;;18.27;10.93;;;;;;;17.98;63.42;98210.09;5113649;28;20027;-76
2021/07/04 05:45:50;;;;;;;14.90;9.68;;;;;;;18.04;63.25;98211.50;5112673;28;20028;-75
2021/07/04 05:48:16;;;;;;;16.80;11.05;;;;;;;18.10;63.06;98207.31;5113379;28;20357;-75
2021/07/04 05:50:41;;;;;;;14.52;7.90;;;;;;;18.18;63.06;98202.78;5112533;28;20030;-75
2021/07/04 05:53:06;;;;;;;13.20;8.13;;;;;;;18.26;62.91;98203.75;5113122;28;20118;-75
2021/07/04 05:55:32;;;;;;;14.18;8.65;;;;;;;18.33;62.30;98203.97;5113367;28;20023;-75
2021/07/04 05:57:58;;;;;;;16.15;9.68;;;;;;;18.40;62.26;98204.16;5112931;28;20031;-76
2021/07/04 06:00:23;;;;;;;16.27;8.85;;;;;;;18.47;62.34;98197.19;5112609;28;20028;-76
2021/07/04 06:02:49;;;;;;;13.70;8.27;;;;;;;18.51;61.94;98204.44;5094169;28;20024;-76
2021/07/04 06:05:17;;;;;;;11.63;7.28;;;;;;;18.54;61.61;98202.94;5112138;28;20089;-76
2021/07/04 06:07:42;;;;;;;11.23;6.90;;;;;;;18.61;61.23;98200.34;5112156;28;20028;-76
2021/07/04 06:10:08;;;;;;;12.48;7.43;;;;;;;18.65;60.85;98198.47;5112038;28;20093;-75
2021/07/04 06:12:33;;;;;;;13.38;7.80;;;;;;;18.72;60.84;98195.09;5111495;28;20027;-76
2021/07/04 06:14:59;;;;;;;11.25;7.63;;;;;;;18.74;60.26;98193.56;5111911;28;20056;-76
2021/07/04 06:17:24;;;;;;;13.82;8.07;;;;;;;18.77;60.42;98197.56;5112851;28;20546;-76
2021/07/04 06:19:50;;;;;;;12.25;7.97;;;;;;;18.82;60.14;98204.84;5112571;28;20027;-75
2021/07/04 06:22:15;;;;;;;11.65;6.93;;;;;;;18.87;60.51;98202.59;5094387;28;20024;-75
2021/07/04 06:24:40;;;;;;;11.95;7.65;;;;;;;18.92;60.25;98201.53;5093556;28;20077;-76
2021/07/04 06:27:06;;;;;;;12.00;7.95;;;;;;;18.98;60.15;98194.56;5112017;28;20073;-75
2021/07/04 06:29:31;;;;;;;14.43;8.23;;;;;;;19.03;60.07;98190.72;5112018;28;20092;-75
2021/07/04 06:31:57;;;;;;;11.40;7.38;;;;;;;19.11;60.00;98202.81;5111922;28;20024;-75
2021/07/04 06:34:22;;;;;;;12.93;7.82;;;;;;;19.14;59.84;98191.78;5112476;28;20097;-75
2021/07/04 06:36:47;;;;;;;14.90;8.98;;;;;;;19.19;59.44;98213.72;5111921;28;20121;-75
2021/07/04 06:39:13;;;;;;;14.70;8.50;;;;;;;19.19;59.61;98210.94;5111731;28;20031;-76
2021/07/04 06:41:38;;;;;;;13.77;9.10;;;;;;;19.23;59.52;98213.84;5111617;28;20035;-76
2021/07/04 06:44:04;;;;;;;13.18;9.18;;;;;;;19.29;59.40;98209.63;5112608;28;20024;-75
2021/07/04 06:46:31;;;;;;;13.05;8.93;;;;;;;19.33;59.36;98218.84;5112126;28;20031;-76
2021/07/04 06:48:56;;;;;;;13.95;8.63;;;;;;;19.40;59.37;98211.81;5112181;28;20122;-75
2021/07/04 06:51:21;;;;;;;17.40;8.95;;;;;;;19.48;58.67;98219.16;5116468;28;20452;-76
2021/07/04 06:53:47;;;;;;;12.20;7.97;;;;;;;19.53;59.09;98213.34;5116306;28;20053;-75
2021/07/04 06:56:12;;;;;;;14.63;8.70;;;;;;;19.56;59.05;98209.03;5116119;28;20020;-75
2021/07/04 06:58:37;;;;;;;11.68;7.30;;;;;;;19.61;58.72;98215.13;5097714;28;20031;-76
2021/07/04 07:01:03;;;;;;;11.40;7.65;;;;;;;19.68;58.27;98224.78;5115698;28;20027;-76
2021/07/04 07:03:29;;;;;;;9.73;7.30;;;;;;;19.72;58.32;98214.56;5114014;28;20045;-75
2021/07/04 07:05:54;;;;;;;11.80;7.30;;;;;;;;;;5115924;28;20051;-75
2021/07/04 07:08:19;;;;;;;10.35;7.03;;;;;;;19.84;57.93;98217.19;5115986;28;20035;-76
2021/07/04 07:10:46;;;;;;;12.68;8.25;;;;;;;19.90;57.53;98224.13;5116282;28;20027;-75
2021/07/04 07:13:12;;;;;;;11.90;7.65;;;;;;;19.96;57.64;98218.25;5115995;28;20030;-75
2021/07/04 07:15:37;;;;;;;11.50;7.40;;;;;;;19.99;56.51;98207.19;5115855;28;20102;-75
2021/07/04 07:18:03;;;;;;;9.93;6.78;;;;;;;20.03;56.54;98218.41;5116235;28;20050;-76
2021/07/04 07:20:30;;;;;;;11.43;7.15;;;;;;;20.05;56.61;98213.28;5115385;28;20111;-76
2021/07/04 07:22:55;;;;;;;11.20;7.45;;;;;;;20.09;56.10;98211.38;5115947;28;20027;-75
2021/07/04 07:25:21;;;;;;;11.40;7.38;;;;;;;20.10;56.27;98212.19;5117180;28;20089;-75
2021/07/04 07:27:46;;;;;;;11.10;6.90;;;;;;;20.13;56.26;98209.50;5114223;28;20410;-75
2021/07/04 07:30:13;;;;;;;13.23;7.40;;;;;;;20.22;55.72;98225.97;5115466;28;20476;-76
2021/07/04 07:32:39;;;;;;;9.88;6.82;;;;;;;20.28;55.67;98206.97;5107972;28;20093;-75
2021/07/04 07:35:07;;;;;;;10.35;7.90;;;;;;;20.32;55.77;98210.63;5114269;28;20035;-75
2021/07/04 07:37:33;;;;;;;9.52;6.97;;;;;;;20.36;55.45;98211.50;5115651;28;20044;-76
2021/07/04 07:39:58;;;;;;;12.35;7.68;;;;;;;20.41;55.10;98208.44;5095760;28;20093;-75
2021/07/04 07:42:24;;;;;;;13.25;9.30;;;;;;;20.49;54.87;98215.75;5115384;28;20039;-76
2021/07/04 07:44:49;;;;;;;13.35;9.02;;;;;;;20.58;55.26;98206.38;5097088;28;20031;-76
2021/07/04 07:47:16;;;;;;;11.75;7.40;;;;;;;20.65;55.09;98200.91;5096235;28;20104;-75
2021/07/04 07:49:42;;;;;;;9.80;6.40;;;;;;;20.71;54.87;98199.44;5114632;28;20093;-75
2021/07/04 07:52:08;;;;;;;10.75;7.00;;;;;;;20.78;55.20;98199.59;5114580;28;20069;-75
2021/07/04 07:54:33;;;;;;;11.02;7.13;;;;;;;20.86;54.41;98199.72;5114719;28;20127;-76
2021/07/04 07:57:02;;;;;;;12.93;7.65;;;;;;;20.94;54.22;98202.25;5114888;28;20031;-75
2021/07/04 07:59:30;;;;;;;10.25;7.30;;;;;;;20.97;54.17;98200.72;5114380;28;20078;-75
2021/07/04 08:01:56;;;;;;;11.07;6.93;;;;;;;21.05;54.10;98196.06;5100891;28;20052;-75
2021/07/04 08:04:22;;;;;;;12.40;6.90;;;;;;;21.14;53.05;98201.38;5114579;28;20117;-76
2021/07/04 08:06:47;;;;;;;11.55;6.78;;;;;;;21.16;52.47;98193.44;5113695;28;20080;-75
2021/07/04 08:09:13;;;;;;;8.55;6.15;;;;;;;21.17;52.60;98190.28;5108142;28;20028;-75
2021/07/04 08:11:38;;;;;;;11.07;6.68;;;;;;;21.25;52.50;98182.81;5114578;28;20058;-75
2021/07/04 08:14:03;;;;;;;10.32;7.10;;;;;;;21.30;52.61;98179.72;5114983;28;20031;-75
2021/07/04 08:16:29;;;;;;;10.60;6.35;;;;;;;21.37;52.40;98187.38;5115025;28;20463;-75
2021/07/04 08:18:54;;;;;;;11.07;8.00;;;;;;;21.47;52.17;98175.59;5113472;28;20027;-79
2021/07/04 08:21:19;;;;;;;10.73;7.30;;;;;;;21.56;52.13;98186.47;5113150;28;20034;-74
2021/07/04 08:23:45;;;;;;;10.80;7.03;;;;;;;21.63;51.60;98178.22;5114017;28;20039;-74
2021/07/04 08:26:10;;;;;;;10.13;6.88;;;;;;;21.64;51.59;98182.63;5111113;28;20436;-74
2021/07/04 08:28:36;;;;;;;11.45;6.93;;;;;;;21.69;51.23;98182.31;5099097;28;20028;-74
2021/07/04 08:31:02;;;;;;;10.55;6.50;;;;;;;21.78;50.49;98181.22;5095153;28;20024;-75
2021/07/04 08:33:27;;;;;;;10.73;6.95;;;;;;;21.79;50.45;98172.47;5094440;28;20024;-76
2021/07/04 08:35:53;;;;;;;11.80;6.90;;;;;;;21.87;50.95;98178.94;5094595;28;20020;-74
2021/07/04 08:38:18;;;;;;;8.75;6.55;;;;;;;21.90;50.63;98169.78;5094602;28;20023;-74
2021/07/04 08:40:43;;;;;;;10.82;6.72;;;;;;;22.06;51.17;98177.19;5098772;28;20024;-74
2021/07/04 08:43:09;;;;;;;10.27;7.03;;;;;;;22.22;50.79;98174.16;5107307;28;20023;-74
2021/07/04 08:45:39;;;;;;;8.93;6.20;;;;;;;22.36;50.50;98171.53;5082898;28;20044;-74
2021/07/04 08:48:07;;;;;;;10.38;6.72;;;;;;;22.47;48.66;98170.84;5102373;28;20050;-74
2021/07/04 08:50:34;;;;;;;9.90;6.90;;;;;;;22.41;48.66;98164.78;5095573;28;20062;-73
2021/07/04 08:53:00;;;;;;;9.63;6.43;;;;;;;22.38;48.87;98168.34;5093817;28;20484;-74
2021/07/04 08:55:27;;;;;;;9.68;7.07;;;;;;;22.44;49.68;98159.25;5104619;28;20379;-73
2021/07/04 08:57:56;;;;;;;8.48;5.88;;;;;;;22.57;50.25;98167.38;5099560;28;20024;-73
2021/07/04 09:00:22;;;;;;;11.80;6.78;;;;;;;22.64;49.84;98155.44;5095313;28;20030;-73
2021/07/04 09:02:47;;;;;;;9.85;7.30;;;;;;;22.73;49.31;98153.16;5078295;28;20028;-75
2021/07/04 09:05:14;;;;;;;10.02;6.88;;;;;;;22.77;48.39;98150.41;5103221;28;20032;-76
2021/07/04 09:07:40;;;;;;;9.18;6.32;;;;;;;22.81;47.87;98152.03;5114188;28;20179;-78
2021/07/04 09:10:12;;;;;;;9.75;6.43;;;;;;;22.78;47.36;98141.63;5114260;28;20422;-77
2021/07/04 09:12:43;;;;;;;9.30;7.18;;;;;;;22.78;46.89;98152.00;5110748;28;20020;-75
2021/07/04 09:15:10;;;;;;;9.52;6.30;;;;;;;22.75;47.10;98146.00;5114154;28;20032;-77
2021/07/04 09:17:38;;;;;;;10.07;6.88;;;;;;;22.81;47.22;98152.03;5114042;28;20031;-76
2021/07/04 09:20:28;;;;;;;7.85;5.57;;;;;;;22.79;46.04;98148.81;5095905;28;20115;-77
2021/07/04 09:22:59;;;;;;;8.70;6.68;;;;;;;22.69;46.68;98143.91;5103282;28;20044;-76
2021/07/04 09:25:30;;;;;;;9.35;6.80;;;;;;;22.66;47.14;98139.09;5109345;28;20550;-75
2021/07/04 09:28:03;;;;;;;10.07;7.25;;;;;;;22.73;47.46;98140.00;5106633;28;20027;-75
2021/07/04 09:30:53;;;;;;;9.27;6.85;;;;;;;22.82;47.40;98138.88;5105335;28;20024;-75
2021/07/04 09:33:21;;;;;;;10.15;7.30;;;;;;;22.87;46.55;98138.47;5092819;28;20057;-75
2021/07/04 09:35:58;;;;;;;12.48;7.07;;;;;;;22.94;46.12;98135.75;5101336;28;20046;-73
2021/07/04 09:38:28;;;;;;;11.05;7.05;;;;;;;23.03;47.12;98127.03;5101426;28;20119;-71
2021/07/04 09:40:53;;;;;;;10.88;7.10;;;;;;;23.10;47.36;98129.88;5100129;28;20509;-71
2021/07/04 09:43:19;;;;;;;9.38;7.10;;;;;;;23.16;47.21;98131.13;5099006;28;20103;-71
2021/07/04 09:45:52;;;;;;;12.55;7.45;;;;;;;23.20;46.99;98128.38;5097485;28;20521;-71
2021/07/04 09:48:31;;;;;;;10.13;7.15;;;;;;;23.20;47.71;98126.34;5096023;28;20024;-70
2021/07/04 09:50:59;;;;;;;10.15;7.03;;;;;;;23.28;47.81;98109.66;5092932;28;20032;-70
2021/07/04 09:53:32;;;;;;;10.68;7.40;;;;;;;23.32;47.59;98111.25;5088414;28;20467;-71
2021/07/04 09:56:11;;;;;;;12.57;7.93;;;;;;;23.38;46.74;98111.72;5092885;28;20032;-71
2021/07/04 09:58:37;;;;;;;10.18;7.28;;;;;;;23.37;46.57;98110.09;5092926;28;20028;-71
2021/07/04 10:01:03;;;;;;;11.32;6.78;;;;;;;23.43;47.19;98108.53;5109650;28;20896;-71
2021/07/04 10:03:28;;;;;;;8.82;6.70;;;;;;;23.52;47.18;98104.56;5092479;28;20020;-71
2021/07/04 10:05:54;;;;;;;9.88;6.65;;;;;;;23.62;47.57;98103.81;5101131;28;20054;-71
2021/07/04 10:08:25;;;;;;;10.57;7.15;;;;;;;23.76;47.83;98100.28;5112925;28;20543;-71
2021/07/04 10:10:53;;;;;;;8.82;7.32;;;;;;;23.90;47.73;98105.13;5111486;28;20022;-71
2021/07/04 10:13:19;;;;;;;9.40;6.80;;;;;;;24.02;46.98;98104.81;5092917;28;20024;-73
2021/07/04 10:15:45;;;;;;;9.52;7.10;;;;;;;24.10;46.85;98100.00;5111362;28;20015;-72
2021/07/04 10:18:12;;;;;;;10.23;7.22;;;;;;;24.14;46.00;98100.03;5102090;28;20099;-71
2021/07/04 10:20:38;;;;;;;9.48;6.82;;;;;;;24.21;45.63;98100.84;5092379;28;20024;-71
2021/07/04 10:23:09;;;;;;;9.82;6.90;;;;;;;24.23;45.13;98090.03;5079724;28;20017;-72
2021/07/04 10:25:35;;;;;;;8.77;6.03;;;;;;;24.33;45.16;98088.44;5091668;28;20040;-71
2021/07/04 10:28:01;;;;;;;11.15;7.85;;;;;;;24.41;45.66;98085.66;5092120;28;20075;-71
2021/07/04 10:30:27;;;;;;;10.00;6.80;;;;;;;24.55;45.60;98087.66;5092135;28;20028;-72
2021/07/04 10:33:05;;;;;;;8.23;5.90;;;;;;;24.65;43.34;98081.28;5100376;28;20384;-72
2021/07/04 10:35:30;;;;;;;9.02;6.93;;;;;;;24.78;42.00;98076.09;5089416;28;20055;-72
2021/07/04 10:38:14;;;;;;;9.65;6.45;;;;;;;24.83;41.79;98072.88;5091583;28;20044;-69
2021/07/04 10:40:40;;;;;;;9.63;6.85;;;;;;;24.80;41.24;98068.88;5091363;28;20489;-69
2021/07/04 10:43:05;;;;;;;9.02;6.93;;;;;;;24.75;40.98;98060.88;5091020;28;20028;-69
2021/07/04 10:45:32;;;;;;;10.05;6.60;;;;;;;24.71;40.70;98056.44;5092336;28;20020;-69
2021/07/04 10:48:18;;;;;;;9.23;6.18;;;;;;;24.68;41.96;98060.84;5095105;28;20391;-69
2021/07/04 10:51:10;;;;;;;13.95;7.50;;;;;;;24.86;43.97;98048.84;5086765;28;20028;-70
2021/07/04 10:53:54;;;;;;;9.75;7.10;;;;;;;25.06;44.21;98052.03;5092300;28;20034;-70
2021/07/04 10:56:34;;;;;;;9.02;6.20;;;;;;;25.12;43.76;98047.56;5092196;28;20028;-70
2021/07/04 10:59:07;;;;;;;11.02;6.57;;;;;;;25.15;42.61;98052.38;5101320;28;20565;-70
2021/07/04 11:01:56;;;;;;;10.77;6.13;;;;;;;25.09;42.42;98051.19;5107871;28;20110;-70
2021/07/04 11:04:27;;;;;;;10.25;6.53;;;;;;;25.06;43.36;98043.59;5100057;28;20050;-73
2021/07/04 11:06:58;;;;;;;8.82;6.50;;;;;;;25.09;43.62;98048.38;5098700;28;20039;-72
2021/07/04 11:09:23;;;;;;;8.63;5.85;;;;;;;25.07;42.98;98033.97;5100532;28;20122;-72
2021/07/04 11:11:49;;;;;;;10.25;6.15;;;;;;;25.05;42.86;98037.19;5095163;28;20099;-73
2021/07/04 11:14:14;;;;;;;8.85;6.20;;;;;;;25.08;43.33;98038.38;5082148;28;20034;-73
2021/07/04 11:17:03;;;;;;;11.50;6.72;;;;;;;25.03;42.94;98039.59;5108473;28;20020;-74
2021/07/04 11:19:28;;;;;;;9.85;7.13;;;;;;;24.97;42.09;98036.41;5110416;28;20024;-73
2021/07/04 11:21:58;;;;;;;8.35;6.20;;;;;;;24.86;41.96;98032.81;5111825;28;20537;-72
2021/07/04 11:24:26;;;;;;;8.75;6.35;;;;;;;24.83;42.00;98036.41;5112609;28;20107;-75